createdAt,value
2023-02-03T00:01:09.724Z,2.13
2023-02-03T00:06:07.724Z,1.98
2023-02-03T00:11:05.982Z,2.10
2023-02-03T00:16:03.849Z,2.06
2023-02-03T00:21:03.047Z,1.89
2023-02-03T00:26:07.396Z,2.17
2023-02-03T00:31:05.225Z,2.08
2023-02-03T00:36:07.333Z,2.01
2023-02-03T00:41:05.322Z,2.14
2023-02-03T00:46:03.122Z,1.87
2023-02-03T00:51:00.954Z,1.95
2023-02-03T00:56:00.176Z,1.93
2023-02-03T01:00:58.111Z,1.94
2023-02-03T01:05:56.274Z,2.06
2023-02-03T01:10:54.031Z,2.06
2023-02-03T01:15:53.532Z,2.17
2023-02-03T01:20:51.315Z,2.11
2023-02-03T01:25:49.326Z,2.06
2023-02-03T01:30:47.318Z,2.37
2023-02-03T01:35:46.558Z,2.08
2023-02-03T01:40:44.727Z,2.36
2023-02-03T01:45:43.572Z,2.52
2023-02-03T01:50:41.466Z,2.53
2023-02-03T01:55:42.228Z,2.51
2023-02-03T02:00:40.325Z,2.60
2023-02-03T02:05:40.466Z,2.67
2023-02-03T02:10:38.243Z,2.93
2023-02-03T02:15:44.398Z,2.83
2023-02-03T02:20:57.062Z,2.72
2023-02-03T02:26:05.079Z,2.71
2023-02-03T02:31:21.549Z,2.93
2023-02-03T02:36:27.495Z,3.08
2023-02-03T02:41:27.601Z,3.07
2023-02-03T02:46:32.390Z,3.07
2023-02-03T02:51:34.142Z,3.06
2023-02-03T02:56:33.514Z,3.11
2023-02-03T03:01:31.480Z,2.94
2023-02-03T03:06:32.528Z,3.07
2023-02-03T03:11:33.543Z,2.98
2023-02-03T03:16:34.571Z,2.88
2023-02-03T03:21:34.922Z,3.14
2023-02-03T03:26:37.092Z,2.98
2023-02-03T03:31:35.218Z,2.94
2023-02-03T03:36:38.953Z,2.96
2023-02-03T03:41:42.509Z,2.92
2023-02-03T03:46:44.392Z,3.08
2023-02-03T03:51:45.097Z,3.10
2023-02-03T03:56:46.539Z,3.19
2023-02-03T04:01:44.839Z,3.12
2023-02-03T04:06:42.680Z,2.91
2023-02-03T04:11:59.913Z,3.17
2023-02-03T04:16:59.206Z,3.10
2023-02-03T04:21:58.344Z,3.21
2023-02-03T04:26:56.144Z,3.27
2023-02-03T04:31:54.003Z,3.09
2023-02-03T04:36:53.183Z,2.94
2023-02-03T04:41:51.007Z,3.04
2023-02-03T04:46:48.767Z,3.03
2023-02-03T04:51:46.583Z,3.12
2023-02-03T04:56:45.759Z,3.00
2023-02-03T05:01:43.626Z,3.30
2023-02-03T05:06:41.409Z,3.25
2023-02-03T05:11:39.180Z,3.26
2023-02-03T05:16:38.423Z,3.15
2023-02-03T05:21:36.267Z,3.15
2023-02-03T05:26:34.069Z,3.10
2023-02-03T05:31:33.649Z,3.04
2023-02-03T05:36:32.959Z,3.29
2023-02-03T05:41:48.166Z,3.31
2023-02-03T05:46:46.020Z,3.22
2023-02-03T05:51:45.176Z,3.04
2023-02-03T05:56:42.963Z,3.07
2023-02-03T06:01:40.828Z,3.16
2023-02-03T06:06:38.686Z,3.17
2023-02-03T06:11:37.896Z,3.11
2023-02-03T06:16:35.730Z,3.39
2023-02-03T06:21:33.503Z,3.47
2023-02-03T06:26:31.270Z,3.78
2023-02-03T06:31:30.526Z,3.78
2023-02-03T06:36:28.598Z,3.61
2023-02-03T06:41:30.590Z,3.50
2023-02-03T06:46:30.953Z,3.88
2023-02-03T06:51:28.830Z,3.67
2023-02-03T06:56:26.754Z,3.65
2023-02-03T07:01:26.059Z,3.66
2023-02-03T07:06:29.148Z,3.75
2023-02-03T07:11:27.023Z,3.82
2023-02-03T07:16:24.951Z,4.26
2023-02-03T07:21:22.756Z,3.87
2023-02-03T07:26:23.087Z,3.99
2023-02-03T07:31:21.352Z,4.27
2023-02-03T07:36:19.219Z,4.53
2023-02-03T07:41:18.181Z,4.69
2023-02-03T07:46:24.131Z,5.28
2023-02-03T07:51:29.736Z,5.88
2023-02-03T07:56:34.317Z,6.00
2023-02-03T08:01:38.458Z,6.27
2023-02-03T08:06:44.073Z,5.99
2023-02-03T08:17:44.733Z,5.73
2023-02-03T08:22:42.503Z,5.55
2023-02-03T08:27:42.942Z,5.75
2023-02-03T08:32:40.982Z,5.55
2023-02-03T08:37:40.155Z,5.79
2023-02-03T08:42:38.045Z,6.37
2023-02-03T08:47:36.940Z,6.78
2023-02-03T08:52:34.913Z,7.11
2023-02-03T08:57:35.637Z,7.29
2023-02-03T09:02:33.500Z,7.22
2023-02-03T09:07:31.349Z,7.23
2023-02-03T09:12:29.233Z,7.37
2023-02-03T09:17:28.915Z,7.27
2023-02-03T09:22:26.753Z,7.36
2023-02-03T09:27:24.696Z,7.18
2023-02-03T09:32:22.479Z,7.17
2023-02-03T09:37:21.650Z,7.34
2023-02-03T09:42:29.498Z,7.30
2023-02-03T09:47:30.007Z,7.57
2023-02-03T09:52:30.379Z,7.31
2023-02-03T09:57:30.441Z,7.55
2023-02-03T10:02:35.380Z,7.74
2023-02-03T10:07:38.498Z,8.05
2023-02-03T10:12:46.454Z,7.70
2023-02-03T10:17:47.536Z,7.79
2023-02-03T10:22:49.903Z,7.89
2023-02-03T10:27:49.095Z,8.02
2023-02-03T10:32:47.283Z,7.83
2023-02-03T10:37:47.045Z,7.84
2023-02-03T10:43:05.899Z,8.46
2023-02-03T10:48:04.352Z,11.01
2023-02-03T10:53:16.977Z,12.73
2023-02-03T10:58:18.221Z,15.12
2023-02-03T11:03:24.279Z,16.73
2023-02-03T11:08:30.627Z,17.43
2023-02-03T11:13:29.908Z,17.58
2023-02-03T11:18:32.999Z,17.39
2023-02-03T11:23:30.809Z,14.50
2023-02-03T11:28:30.315Z,13.98
2023-02-03T11:33:29.000Z,16.03
2023-02-03T11:38:31.173Z,15.69
2023-02-03T11:43:30.835Z,13.90
2023-02-03T11:48:30.825Z,12.55
2023-02-03T11:53:32.129Z,12.21
2023-02-03T11:58:48.393Z,14.18
2023-02-03T12:03:58.746Z,14.81
2023-02-03T12:09:05.206Z,14.57
2023-02-03T12:14:14.692Z,16.01
2023-02-03T12:19:20.770Z,13.62
2023-02-03T12:24:29.970Z,13.53
2023-02-03T12:29:32.667Z,13.13
2023-02-03T12:34:34.545Z,12.56
2023-02-03T12:39:36.481Z,10.88
2023-02-03T12:44:36.500Z,10.58
2023-02-03T12:49:40.662Z,10.74
2023-02-03T12:54:45.512Z,10.43
2023-02-03T12:59:43.662Z,9.84
2023-02-03T13:04:46.442Z,9.61
2023-02-03T13:09:49.590Z,9.88
2023-02-03T13:14:50.476Z,9.87
2023-02-03T13:19:51.226Z,11.14
2023-02-03T13:24:51.066Z,10.86
2023-02-03T13:30:00.034Z,10.29
2023-02-03T13:35:09.243Z,9.75
2023-02-03T13:40:19.774Z,9.70
2023-02-03T13:45:23.398Z,9.59
2023-02-03T13:50:24.740Z,10.39
2023-02-03T13:55:29.304Z,10.46
2023-02-03T14:00:54.512Z,11.32
2023-02-03T14:05:54.912Z,10.49
2023-02-03T14:11:07.563Z,9.56
2023-02-03T14:16:23.298Z,8.74
2023-02-03T14:21:23.374Z,8.91
2023-02-03T14:26:29.819Z,9.47
2023-02-03T14:31:28.520Z,8.81
2023-02-03T14:36:33.757Z,8.59
2023-02-03T14:41:39.572Z,8.48
2023-02-03T14:46:46.119Z,8.30
2023-02-03T14:51:53.706Z,8.01
2023-02-03T14:57:19.830Z,7.25
2023-02-03T15:02:20.033Z,6.96
2023-02-03T15:07:36.318Z,6.53
2023-02-03T15:12:38.826Z,6.39
2023-02-03T15:17:38.384Z,6.01
2023-02-03T15:22:40.270Z,5.94
2023-02-03T15:27:41.717Z,5.70
2023-02-03T15:32:41.956Z,5.59
2023-02-03T15:37:43.428Z,5.43
2023-02-03T15:42:44.814Z,5.53
2023-02-03T15:47:47.461Z,5.17
2023-02-03T15:52:46.595Z,5.18
2023-02-03T15:57:47.191Z,5.02
2023-02-03T16:02:46.581Z,4.88
2023-02-03T16:07:44.461Z,4.78
2023-02-03T16:12:43.040Z,4.73
2023-02-03T16:17:42.381Z,4.45
2023-02-03T16:22:41.268Z,4.53
2023-02-03T16:27:39.132Z,4.39
2023-02-03T16:32:54.211Z,4.50
2023-02-03T16:38:11.037Z,4.29
2023-02-03T16:43:29.651Z,4.20
2023-02-03T16:48:44.580Z,4.32
2023-02-03T16:53:45.238Z,4.13
2023-02-03T16:58:43.161Z,4.22
2023-02-03T17:03:41.008Z,4.25
2023-02-03T17:08:39.419Z,4.18
2023-02-03T17:13:38.642Z,4.07
2023-02-03T17:18:36.642Z,4.00
2023-02-03T17:23:34.521Z,3.92
2023-02-03T17:28:32.678Z,3.97
2023-02-03T17:33:32.093Z,3.96
2023-02-03T17:38:29.941Z,4.06
2023-02-03T17:54:06.387Z,3.85
2023-02-03T17:59:05.607Z,3.51
2023-02-03T18:04:05.880Z,3.61
2023-02-03T18:09:15.754Z,3.65
2023-02-03T18:14:14.234Z,3.53
2023-02-03T18:19:15.287Z,3.44
2023-02-03T18:24:14.222Z,3.31
2023-02-03T18:29:12.757Z,3.28
2023-02-03T18:34:10.696Z,3.15
2023-02-03T18:39:12.428Z,3.33
2023-02-03T18:44:10.742Z,3.42
2023-02-03T18:49:09.860Z,3.63
2023-02-03T18:54:09.027Z,3.48
2023-02-03T18:59:07.782Z,3.57
2023-02-03T19:04:05.806Z,3.57
2023-02-03T19:09:05.474Z,3.47
2023-02-03T19:14:04.960Z,3.70
2023-02-03T19:19:02.797Z,3.81
2023-02-03T19:24:00.632Z,3.79
2023-02-03T19:28:58.485Z,3.48
2023-02-03T19:34:00.083Z,3.41
2023-02-03T19:38:58.161Z,3.31
2023-02-03T19:43:56.012Z,3.57
2023-02-03T19:48:53.889Z,3.47
2023-02-03T19:53:53.802Z,3.39
2023-02-03T19:58:52.215Z,3.24
2023-02-03T20:03:50.452Z,3.39
2023-02-03T20:08:48.256Z,3.11
2023-02-03T20:13:47.713Z,3.27
2023-02-03T20:18:45.575Z,3.40
2023-02-03T20:23:43.519Z,3.44
2023-02-03T20:28:41.414Z,3.64
2023-02-03T20:33:40.680Z,3.60
2023-02-03T20:38:38.531Z,3.80
2023-02-03T20:43:38.093Z,3.77
2023-02-03T20:48:36.006Z,3.80
2023-02-03T20:53:36.948Z,3.56
2023-02-03T20:58:37.208Z,3.78
2023-02-03T21:03:52.257Z,3.54
2023-02-03T21:08:51.425Z,3.61
2023-02-03T21:13:50.065Z,3.57
2023-02-03T21:18:49.833Z,3.95
2023-02-03T21:23:47.988Z,3.97
2023-02-03T21:28:47.649Z,3.74
2023-02-03T21:33:45.780Z,3.84
2023-02-03T21:38:43.708Z,3.66
2023-02-03T21:43:41.514Z,3.80
2023-02-03T21:48:41.531Z,3.65
2023-02-03T21:53:40.057Z,3.81
2023-02-03T21:58:37.938Z,3.86
2023-02-03T22:03:37.899Z,3.66
2023-02-03T22:08:38.029Z,3.80
2023-02-03T22:13:36.013Z,4.07
2023-02-03T22:18:33.884Z,3.95
2023-02-03T22:23:31.870Z,3.47
2023-02-03T22:28:31.095Z,3.65
2023-02-03T22:33:28.896Z,3.69
2023-02-03T22:38:27.060Z,3.98
2023-02-03T22:43:24.875Z,4.01
2023-02-03T22:48:24.118Z,4.24
2023-02-03T22:53:21.930Z,4.34
2023-02-03T22:58:19.770Z,4.41
2023-02-03T23:03:17.752Z,4.09
2023-02-03T23:08:17.175Z,4.33
2023-02-03T23:13:14.986Z,4.03
2023-02-03T23:18:12.803Z,4.23
2023-02-03T23:23:10.609Z,4.44
2023-02-03T23:28:09.919Z,4.26
2023-02-03T23:33:08.161Z,4.38
2023-02-03T23:38:06.037Z,4.29
2023-02-03T23:43:03.831Z,4.26
2023-02-03T23:48:03.138Z,3.77
2023-02-03T23:53:00.971Z,3.72
2023-02-03T23:57:58.828Z,3.48
